KUIL/UIL METAR and TAF weather

Enter ICAO airport designator
Station Type Date Time Source
KUIL METAR 2022/12/04 05:53 UTC NOAA

KUIL 040553Z AUTO 05007KT 10SM CLR 03/M01 A3004 RMK AO2 SLP173 T00281011 10039 20022 55000 $


Station Type Date Time Source
KUIL Decoded METAR 2022/12/04 05:53 UTC NOAA

QUILLAYUTE STATE AIRPORT, WA, United States (KUIL) 47-56N 124-34W 54M
Dec 04, 2022 - 12:53 AM EST / 2022.12.04 0553 UTC
Wind: from the NE (050 degrees) at 8 MPH (7 KT):0
Visibility: 10 mile(s):0
Sky conditions: clear
Temperature: 37.0 F (2.8 C)
Dew Point: 30.0 F (-1.1 C)
Relative Humidity: 75%
Pressure (altimeter): 30.04 in. Hg (1017 hPa)
Pressure tendency: 0.00 inches (0.0 hPa) lower than three hours ago
ob: KUIL 040553Z AUTO 05007KT 10SM CLR 03/M01 A3004 RMK AO2 SLP173 T00281011 10039 20022 55000
cycle: 6

Station Type Date Time Source
KUIL TAF UTC NOAA

Error!

Example: see airport list